createdAt,value
2022-08-20T00:00:01.862Z,48.62
2022-08-20T00:02:05.132Z,48.97
2022-08-20T00:04:07.990Z,48.68
2022-08-20T00:06:15.289Z,48.93
2022-08-20T00:08:18.062Z,48.96
2022-08-20T00:10:22.784Z,49.19
2022-08-20T00:12:25.646Z,49.00
2022-08-20T00:14:29.843Z,49.39
2022-08-20T00:16:38.689Z,49.46
2022-08-20T00:18:42.319Z,49.35
2022-08-20T00:20:51.307Z,49.57
2022-08-20T00:22:54.222Z,49.77
2022-08-20T00:24:57.100Z,50.16
2022-08-20T00:26:59.976Z,50.28
2022-08-20T00:29:02.809Z,50.11
2022-08-20T00:31:10.567Z,50.09
2022-08-20T00:33:16.703Z,50.47
2022-08-20T00:35:23.345Z,50.84
2022-08-20T00:37:26.141Z,50.51
2022-08-20T00:39:29.013Z,50.80
2022-08-20T00:41:31.990Z,50.66
2022-08-20T00:43:37.611Z,50.81
2022-08-20T00:45:40.468Z,50.55
2022-08-20T00:47:51.171Z,50.59
2022-08-20T00:49:54.332Z,50.64
2022-08-20T00:52:00.344Z,50.77
2022-08-20T00:54:07.719Z,50.95
2022-08-20T00:56:13.527Z,51.11
2022-08-20T00:58:16.582Z,51.36
2022-08-20T01:00:23.924Z,51.62
2022-08-20T01:02:29.982Z,51.79
2022-08-20T01:04:36.138Z,51.71
2022-08-20T01:06:39.228Z,51.57
2022-08-20T01:08:43.425Z,51.60
2022-08-20T01:10:50.018Z,51.80
2022-08-20T01:12:58.987Z,51.96
2022-08-20T01:15:04.190Z,52.25
2022-08-20T01:17:09.640Z,52.17
2022-08-20T01:19:29.665Z,52.06
2022-08-20T01:21:34.471Z,52.16
2022-08-20T01:23:45.819Z,52.22
2022-08-20T01:25:53.416Z,52.20
2022-08-20T01:27:57.566Z,52.19
2022-08-20T01:30:06.222Z,52.22
2022-08-20T01:32:09.859Z,52.22
2022-08-20T01:34:15.874Z,52.35
2022-08-20T01:36:22.421Z,52.48
2022-08-20T01:38:25.520Z,52.28
2022-08-20T01:40:56.385Z,52.22
2022-08-20T01:42:59.919Z,52.58
2022-08-20T01:45:03.775Z,52.64
2022-08-20T01:47:12.292Z,53.32
2022-08-20T01:49:23.055Z,53.11
2022-08-20T01:51:29.617Z,52.81
2022-08-20T01:53:35.340Z,52.63
2022-08-20T01:55:38.745Z,52.77
2022-08-20T01:57:43.207Z,52.81
2022-08-20T01:59:46.442Z,52.57
2022-08-20T02:01:49.455Z,52.79
2022-08-20T02:03:53.907Z,52.88
2022-08-20T02:05:57.093Z,53.07
2022-08-20T02:08:00.658Z,53.20
2022-08-20T02:10:04.154Z,53.37
2022-08-20T02:12:09.046Z,52.81
2022-08-20T02:14:16.936Z,53.03
2022-08-20T02:16:22.654Z,53.41
2022-08-20T02:18:25.476Z,53.57
2022-08-20T02:20:31.863Z,53.83
2022-08-20T02:22:40.477Z,53.74
2022-08-20T02:24:52.877Z,53.94
2022-08-20T02:26:56.146Z,54.03
2022-08-20T02:29:01.142Z,54.30
2022-08-20T02:31:08.442Z,54.71
2022-08-20T02:33:14.605Z,54.90
2022-08-20T02:35:18.547Z,55.36
2022-08-20T02:37:21.375Z,55.84
2022-08-20T02:39:24.180Z,55.62
2022-08-20T02:41:27.031Z,55.51
2022-08-20T02:43:31.988Z,55.45
2022-08-20T02:45:37.273Z,55.68
2022-08-20T02:47:41.997Z,55.81
2022-08-20T02:49:44.908Z,56.08
2022-08-20T02:51:48.248Z,55.83
2022-08-20T02:53:51.276Z,55.74
2022-08-20T02:55:54.136Z,55.18
2022-08-20T02:57:59.809Z,55.15
2022-08-20T03:00:03.987Z,55.13
2022-08-20T03:02:06.943Z,55.02
2022-08-20T03:04:11.381Z,54.94
2022-08-20T03:06:16.025Z,55.23
2022-08-20T03:08:19.005Z,54.98
2022-08-20T03:10:25.677Z,55.27
2022-08-20T03:12:28.626Z,55.20
2022-08-20T03:14:31.469Z,55.43
2022-08-20T03:16:35.432Z,55.06
2022-08-20T03:18:41.766Z,55.23
2022-08-20T03:20:46.698Z,54.93
2022-08-20T03:22:55.318Z,55.38
2022-08-20T03:24:58.108Z,55.34
2022-08-20T03:27:01.582Z,55.56
2022-08-20T03:29:04.561Z,55.36
2022-08-20T03:31:07.861Z,55.51
2022-08-20T03:33:11.194Z,55.36
2022-08-20T03:35:16.083Z,55.64
2022-08-20T03:37:20.320Z,55.50
2022-08-20T03:39:23.140Z,55.71
2022-08-20T03:41:26.068Z,55.98
2022-08-20T03:43:29.003Z,56.29
2022-08-20T03:45:33.746Z,56.28
2022-08-20T03:47:36.743Z,56.22
2022-08-20T03:49:39.569Z,56.43
2022-08-20T03:51:56.457Z,56.45
2022-08-20T03:54:02.758Z,56.84
2022-08-20T03:56:07.161Z,56.66
2022-08-20T03:58:10.580Z,56.89
2022-08-20T04:00:15.204Z,56.69
2022-08-20T04:02:18.379Z,56.56
2022-08-20T04:04:22.092Z,56.49
2022-08-20T04:06:25.116Z,56.85
2022-08-20T04:08:30.675Z,56.80
2022-08-20T04:10:35.449Z,57.20
2022-08-20T04:12:40.744Z,57.23
2022-08-20T04:14:52.135Z,57.61
2022-08-20T04:16:54.936Z,57.36
2022-08-20T04:19:02.519Z,57.48
2022-08-20T04:21:06.392Z,57.61
2022-08-20T04:23:10.242Z,57.91
2022-08-20T04:25:16.069Z,57.57
2022-08-20T04:27:21.186Z,57.71
2022-08-20T04:29:24.799Z,57.75
2022-08-20T04:31:33.901Z,57.84
2022-08-20T04:33:36.905Z,58.25
2022-08-20T04:35:39.673Z,58.12
2022-08-20T04:37:43.131Z,58.01
2022-08-20T04:40:06.424Z,58.20
2022-08-20T04:42:09.395Z,58.26
2022-08-20T04:44:13.793Z,58.34
2022-08-20T04:46:16.972Z,58.73
2022-08-20T04:48:23.809Z,58.07
2022-08-20T04:50:26.940Z,58.26
2022-08-20T04:52:32.791Z,58.49
2022-08-20T04:54:35.655Z,58.30
2022-08-20T04:56:39.588Z,58.20
2022-08-20T04:58:47.920Z,58.39
2022-08-20T05:00:55.331Z,58.25
2022-08-20T05:02:58.467Z,58.18
2022-08-20T05:05:01.434Z,58.02
2022-08-20T05:07:04.639Z,57.91
2022-08-20T05:09:07.551Z,57.58
2022-08-20T05:11:33.578Z,57.29
2022-08-20T05:13:33.826Z,57.33
2022-08-20T05:15:38.582Z,57.47
2022-08-20T05:17:44.279Z,57.28
2022-08-20T05:19:47.540Z,57.24
2022-08-20T05:21:53.513Z,57.10
2022-08-20T05:23:56.444Z,57.01
2022-08-20T05:25:59.738Z,57.15
2022-08-20T05:28:09.230Z,56.98
2022-08-20T05:30:13.485Z,57.06
2022-08-20T05:32:16.829Z,57.09
2022-08-20T05:34:21.266Z,57.17
2022-08-20T05:36:24.097Z,56.83
2022-08-20T05:38:29.603Z,57.31
2022-08-20T05:40:33.382Z,57.59
2022-08-20T05:42:36.279Z,57.74
2022-08-20T05:44:39.563Z,58.00
2022-08-20T05:46:43.940Z,58.21
2022-08-20T05:48:46.566Z,58.47
2022-08-20T05:50:54.300Z,58.41
2022-08-20T05:52:57.132Z,58.46
2022-08-20T05:54:59.935Z,58.46
2022-08-20T05:57:02.774Z,58.64
2022-08-20T05:59:07.311Z,58.77
2022-08-20T06:01:10.219Z,58.44
2022-08-20T06:03:31.099Z,58.51
2022-08-20T06:05:34.438Z,58.56
2022-08-20T06:07:39.415Z,58.65
2022-08-20T06:09:44.431Z,58.53
2022-08-20T06:11:47.634Z,58.56
2022-08-20T06:13:50.486Z,58.47
2022-08-20T06:15:55.057Z,58.46
2022-08-20T06:17:58.958Z,58.71
2022-08-20T06:20:06.926Z,58.48
2022-08-20T06:22:19.836Z,58.20
2022-08-20T06:24:31.923Z,57.91
2022-08-20T06:26:35.428Z,57.65
2022-08-20T06:28:38.560Z,57.92
2022-08-20T06:30:41.404Z,57.76
2022-08-20T06:32:44.218Z,57.63
2022-08-20T06:34:49.890Z,58.06
2022-08-20T06:36:53.683Z,58.02
2022-08-20T06:38:58.340Z,58.30
2022-08-20T06:41:02.921Z,58.16
2022-08-20T06:43:09.795Z,58.25
2022-08-20T06:45:13.800Z,57.28
2022-08-20T06:47:17.997Z,57.47
2022-08-20T06:49:20.847Z,57.42
2022-08-20T06:51:23.703Z,57.87
2022-08-20T06:53:26.577Z,58.41
2022-08-20T06:55:30.554Z,58.13
2022-08-20T06:57:34.746Z,58.17
2022-08-20T06:59:37.707Z,58.05
2022-08-20T07:01:40.833Z,58.07
2022-08-20T07:03:54.642Z,58.11
2022-08-20T07:05:59.389Z,57.79
2022-08-20T07:08:02.526Z,57.78
2022-08-20T07:10:07.361Z,57.99
2022-08-20T07:12:10.523Z,57.71
2022-08-20T07:14:15.236Z,57.97
2022-08-20T07:16:18.128Z,58.06
2022-08-20T07:18:27.912Z,57.92
2022-08-20T07:20:34.384Z,58.04
2022-08-20T07:22:37.623Z,57.99
2022-08-20T07:24:41.998Z,58.17
2022-08-20T07:26:46.524Z,57.93
2022-08-20T07:28:49.357Z,57.79
2022-08-20T07:31:13.439Z,57.50
2022-08-20T07:33:18.678Z,57.74
2022-08-20T07:35:24.651Z,57.69
2022-08-20T07:37:27.505Z,57.69
2022-08-20T07:39:30.388Z,57.74
2022-08-20T07:41:35.267Z,57.58
2022-08-20T07:43:39.460Z,57.71
2022-08-20T07:45:42.984Z,58.07
2022-08-20T07:47:53.476Z,58.11
2022-08-20T07:49:56.309Z,58.39
2022-08-20T07:51:59.209Z,58.05
2022-08-20T07:54:02.133Z,58.39
2022-08-20T07:56:07.370Z,58.19
2022-08-20T07:58:13.127Z,58.32
2022-08-20T08:00:17.529Z,58.00
2022-08-20T08:02:20.752Z,58.27
2022-08-20T08:04:25.634Z,58.50
2022-08-20T08:06:31.774Z,58.34
2022-08-20T08:08:35.833Z,58.45
2022-08-20T08:10:39.525Z,58.01
2022-08-20T08:12:47.628Z,58.49
2022-08-20T08:14:51.589Z,58.48
2022-08-20T08:16:57.223Z,58.08
2022-08-20T08:19:02.066Z,57.58
2022-08-20T08:21:08.724Z,57.51
2022-08-20T08:23:24.684Z,57.64
2022-08-20T08:25:34.684Z,57.44
2022-08-20T08:27:38.128Z,57.67
2022-08-20T08:29:41.022Z,57.56
2022-08-20T08:31:43.926Z,57.78
2022-08-20T08:33:46.769Z,57.70
2022-08-20T08:35:49.588Z,57.52
2022-08-20T08:37:54.659Z,57.52
2022-08-20T08:39:57.572Z,57.28
2022-08-20T08:42:03.031Z,57.55
2022-08-20T08:44:21.263Z,57.68
2022-08-20T08:46:28.129Z,57.48
2022-08-20T08:48:37.170Z,57.23
2022-08-20T08:50:54.005Z,56.75
2022-08-20T08:53:00.759Z,56.32
2022-08-20T08:55:07.306Z,55.86
2022-08-20T08:57:11.536Z,55.81
2022-08-20T08:59:14.825Z,55.74
2022-08-20T09:01:55.359Z,55.49
2022-08-20T09:03:47.011Z,55.31
2022-08-20T09:05:53.091Z,54.86
2022-08-20T09:07:56.351Z,54.40
2022-08-20T09:10:02.351Z,54.49
2022-08-20T09:12:09.454Z,53.14
2022-08-20T09:14:12.803Z,53.57
2022-08-20T09:16:16.123Z,53.85
2022-08-20T09:18:19.005Z,54.08
2022-08-20T09:20:27.007Z,54.19
2022-08-20T09:22:30.834Z,54.05
2022-08-20T09:24:33.654Z,53.67
2022-08-20T09:26:39.252Z,52.96
2022-08-20T09:28:42.234Z,52.14
2022-08-20T09:30:45.346Z,51.92
2022-08-20T09:32:49.559Z,51.93
2022-08-20T09:34:56.267Z,51.53
2022-08-20T09:36:59.112Z,50.78
2022-08-20T09:39:02.662Z,50.62
2022-08-20T09:41:06.022Z,50.64
2022-08-20T09:43:10.352Z,50.81
2022-08-20T09:45:13.414Z,51.43
2022-08-20T09:47:17.301Z,50.16
2022-08-20T09:49:20.170Z,49.82
2022-08-20T09:51:23.763Z,49.73
2022-08-20T09:53:26.602Z,50.15
2022-08-20T09:55:34.878Z,50.35
2022-08-20T09:57:37.770Z,50.07
2022-08-20T09:59:42.140Z,49.57
2022-08-20T10:01:44.850Z,49.12
2022-08-20T10:03:50.113Z,49.40
2022-08-20T10:05:53.020Z,48.26
2022-08-20T10:07:56.033Z,47.02
2022-08-20T10:09:58.951Z,44.65
2022-08-20T10:12:01.784Z,45.72
2022-08-20T10:14:05.123Z,46.00
2022-08-20T10:16:09.633Z,46.61
2022-08-20T10:18:12.586Z,46.79
2022-08-20T10:20:18.261Z,46.38
2022-08-20T10:22:21.104Z,46.75
2022-08-20T10:24:24.571Z,47.07
2022-08-20T10:26:27.893Z,47.27
2022-08-20T10:28:31.148Z,47.08
2022-08-20T10:30:34.250Z,45.98
2022-08-20T10:32:38.490Z,45.96
2022-08-20T10:34:41.290Z,45.33
2022-08-20T10:36:44.744Z,44.69
2022-08-20T10:38:48.926Z,45.19
2022-08-20T10:40:52.642Z,45.36
2022-08-20T10:42:55.669Z,45.62
2022-08-20T10:44:58.595Z,46.09
2022-08-20T10:47:14.342Z,46.03
2022-08-20T10:49:18.590Z,46.52
2022-08-20T10:51:21.301Z,46.83
2022-08-20T10:53:35.911Z,46.62
2022-08-20T10:55:38.858Z,46.59
2022-08-20T10:57:43.722Z,46.19
2022-08-20T10:59:49.236Z,45.67
2022-08-20T11:01:52.140Z,44.91
2022-08-20T11:03:55.397Z,44.32
2022-08-20T11:05:59.725Z,43.12
2022-08-20T11:08:04.202Z,43.34
2022-08-20T11:10:13.477Z,43.45
2022-08-20T11:12:18.847Z,43.44
2022-08-20T11:14:21.826Z,43.54
2022-08-20T11:16:24.845Z,42.50
2022-08-20T11:18:27.718Z,41.42
2022-08-20T11:20:31.999Z,42.01
2022-08-20T11:22:36.300Z,41.35
2022-08-20T11:24:39.584Z,41.25
2022-08-20T11:26:42.847Z,41.62
2022-08-20T11:28:45.926Z,41.82
2022-08-20T11:30:50.108Z,42.11
2022-08-20T11:32:52.922Z,42.53
2022-08-20T11:34:55.896Z,41.88
2022-08-20T11:36:59.927Z,41.72
2022-08-20T11:39:05.085Z,41.69
2022-08-20T11:41:08.048Z,41.82
2022-08-20T11:43:16.282Z,42.02
2022-08-20T11:45:20.206Z,42.33
2022-08-20T11:47:27.217Z,41.75
2022-08-20T11:49:30.430Z,41.43
2022-08-20T11:51:39.078Z,41.72
2022-08-20T11:53:52.323Z,41.38
2022-08-20T11:55:56.772Z,41.17
2022-08-20T11:58:00.987Z,40.76
2022-08-20T12:00:08.874Z,40.46
2022-08-20T12:02:12.690Z,40.66
2022-08-20T12:04:15.669Z,40.81
2022-08-20T12:06:18.726Z,40.10
2022-08-20T12:08:24.970Z,40.21
2022-08-20T12:10:31.201Z,40.52
2022-08-20T12:12:35.588Z,40.80
2022-08-20T12:14:38.678Z,40.59
2022-08-20T12:16:41.662Z,39.72
2022-08-20T12:18:45.060Z,39.24
2022-08-20T12:20:48.221Z,38.94
2022-08-20T12:22:55.161Z,39.12
2022-08-20T12:24:58.526Z,38.20
2022-08-20T12:27:11.102Z,37.79
2022-08-20T12:29:15.389Z,37.62
2022-08-20T12:31:18.465Z,37.27
2022-08-20T12:33:21.409Z,36.95
2022-08-20T12:35:24.936Z,36.29
2022-08-20T12:37:30.550Z,35.32
2022-08-20T12:39:34.604Z,35.10
2022-08-20T12:41:37.550Z,35.93
2022-08-20T12:43:40.493Z,35.68
2022-08-20T12:45:44.751Z,34.04
2022-08-20T12:47:48.515Z,32.80
2022-08-20T12:49:54.049Z,32.71
2022-08-20T12:51:56.954Z,32.76
2022-08-20T12:53:59.927Z,33.53
2022-08-20T12:56:05.127Z,33.60
2022-08-20T12:58:10.818Z,33.47
2022-08-20T13:00:19.237Z,33.04
2022-08-20T13:02:23.762Z,33.32
2022-08-20T13:04:26.861Z,33.27
2022-08-20T13:06:29.789Z,33.55
2022-08-20T13:08:32.701Z,33.82
2022-08-20T13:10:44.035Z,33.85
2022-08-20T13:12:46.978Z,33.84
2022-08-20T13:14:49.955Z,33.11
2022-08-20T13:16:56.662Z,32.99
2022-08-20T13:19:00.921Z,33.17
2022-08-20T13:21:03.766Z,32.04
2022-08-20T13:23:07.174Z,32.71
2022-08-20T13:25:12.814Z,33.23
2022-08-20T13:27:17.732Z,32.70
2022-08-20T13:29:21.684Z,30.80
2022-08-20T13:31:24.541Z,30.54
2022-08-20T13:33:27.410Z,29.81
2022-08-20T13:35:32.174Z,29.06
2022-08-20T13:37:35.510Z,28.95
2022-08-20T13:39:40.067Z,28.89
2022-08-20T13:41:43.593Z,28.05
2022-08-20T13:43:46.721Z,28.45
2022-08-20T13:45:49.569Z,27.75
2022-08-20T13:47:54.315Z,27.21
2022-08-20T13:49:58.878Z,27.53
2022-08-20T13:52:03.336Z,27.10
2022-08-20T13:54:06.218Z,26.56
2022-08-20T13:56:13.728Z,26.39
2022-08-20T13:58:17.355Z,26.06
2022-08-20T14:00:31.330Z,25.76
2022-08-20T14:02:35.416Z,26.06
2022-08-20T14:04:38.918Z,26.20
2022-08-20T14:06:41.739Z,25.36
2022-08-20T14:08:46.105Z,24.17
2022-08-20T14:10:53.564Z,24.26
2022-08-20T14:12:56.594Z,24.45
2022-08-20T14:14:59.628Z,24.49
2022-08-20T14:17:16.362Z,23.67
2022-08-20T14:19:19.201Z,23.75
2022-08-20T14:21:21.996Z,23.56
2022-08-20T14:23:24.898Z,23.68
2022-08-20T14:25:31.263Z,23.03
2022-08-20T14:27:34.615Z,23.78
2022-08-20T14:29:39.663Z,23.75
2022-08-20T14:31:42.459Z,23.65
2022-08-20T14:33:45.244Z,23.47
2022-08-20T14:35:48.061Z,23.50
2022-08-20T14:37:53.369Z,23.37
2022-08-20T14:39:58.218Z,23.17
2022-08-20T14:42:02.417Z,23.00
2022-08-20T14:44:05.583Z,23.42
2022-08-20T14:46:08.475Z,23.34
2022-08-20T14:48:11.343Z,23.18
2022-08-20T14:50:16.442Z,23.55
2022-08-20T14:52:21.201Z,22.97
2022-08-20T14:54:24.041Z,23.52
2022-08-20T14:56:26.899Z,23.28
2022-08-20T14:58:31.170Z,23.52
2022-08-20T15:00:34.627Z,23.77
2022-08-20T15:02:37.891Z,22.88
2022-08-20T15:04:41.893Z,23.39
2022-08-20T15:06:45.147Z,22.83
2022-08-20T15:08:48.222Z,22.67
2022-08-20T15:10:51.092Z,23.11
2022-08-20T15:12:54.703Z,23.13
2022-08-20T15:14:59.690Z,23.05
2022-08-20T15:17:07.683Z,23.37
2022-08-20T15:19:10.448Z,23.64
2022-08-20T15:21:14.338Z,23.43
2022-08-20T15:23:17.151Z,23.24
2022-08-20T15:25:23.093Z,23.41
2022-08-20T15:27:27.041Z,23.60
2022-08-20T15:29:29.866Z,23.64
2022-08-20T15:31:34.149Z,23.18
2022-08-20T15:33:37.024Z,23.37
2022-08-20T15:35:40.132Z,23.34
2022-08-20T15:37:45.156Z,23.71
2022-08-20T15:39:49.058Z,23.45
2022-08-20T15:41:51.981Z,23.68
2022-08-20T15:43:54.855Z,22.88
2022-08-20T15:45:58.857Z,23.20
2022-08-20T15:48:10.705Z,23.50
2022-08-20T15:50:33.925Z,23.29
2022-08-20T15:52:42.224Z,23.71
2022-08-20T15:54:46.543Z,23.48
2022-08-20T15:57:02.073Z,23.53
2022-08-20T15:59:14.882Z,23.11
2022-08-20T16:01:28.545Z,23.46
2022-08-20T16:03:53.866Z,22.85
2022-08-20T16:06:02.411Z,21.51
2022-08-20T16:08:14.427Z,21.29
2022-08-20T16:10:23.249Z,20.99
2022-08-20T16:12:33.741Z,21.48
2022-08-20T16:14:40.134Z,20.71
2022-08-20T16:16:47.035Z,20.95
2022-08-20T16:18:53.796Z,20.52
2022-08-20T16:21:01.790Z,20.43
2022-08-20T16:23:06.943Z,20.16
2022-08-20T16:25:10.208Z,20.65
2022-08-20T16:27:17.483Z,20.31
2022-08-20T16:29:27.392Z,20.32
2022-08-20T16:31:40.846Z,20.47
2022-08-20T16:33:48.548Z,19.96
2022-08-20T16:35:58.327Z,19.97
2022-08-20T16:38:08.399Z,19.92
2022-08-20T16:40:23.311Z,20.04
2022-08-20T16:42:33.959Z,20.49
2022-08-20T16:44:39.726Z,20.51
2022-08-20T16:46:48.264Z,21.07
2022-08-20T16:48:57.863Z,21.15
2022-08-20T16:51:06.244Z,21.85
2022-08-20T16:53:21.529Z,22.52
2022-08-20T16:55:25.205Z,22.63
2022-08-20T16:57:29.532Z,22.71
2022-08-20T16:59:33.418Z,22.57
2022-08-20T17:01:37.214Z,22.61
2022-08-20T17:03:50.057Z,22.35
2022-08-20T17:05:55.742Z,22.21
2022-08-20T17:08:03.396Z,22.39
2022-08-20T17:10:17.287Z,22.61
2022-08-20T17:12:22.570Z,23.03
2022-08-20T17:14:25.468Z,23.36
2022-08-20T17:16:35.296Z,23.71
2022-08-20T17:18:40.755Z,24.03
2022-08-20T17:20:45.992Z,24.49
2022-08-20T17:22:51.227Z,24.49
2022-08-20T17:24:56.416Z,24.56
2022-08-20T17:27:01.741Z,24.80
2022-08-20T17:29:13.449Z,24.83
2022-08-20T17:31:21.162Z,25.03
2022-08-20T17:33:40.538Z,25.05
2022-08-20T17:35:49.458Z,25.10
2022-08-20T17:37:54.087Z,25.22
2022-08-20T17:40:10.146Z,25.31
2022-08-20T17:42:18.428Z,25.78
2022-08-20T17:44:24.495Z,25.79
2022-08-20T17:46:30.144Z,26.46
2022-08-20T17:48:38.614Z,26.48
2022-08-20T17:50:44.042Z,26.34
2022-08-20T17:52:50.816Z,26.36
2022-08-20T17:54:53.690Z,26.18
2022-08-20T17:57:02.511Z,26.18
2022-08-20T17:59:10.670Z,26.23
2022-08-20T18:01:15.559Z,26.58
2022-08-20T18:03:22.419Z,26.69
2022-08-20T18:05:25.691Z,26.52
2022-08-20T18:07:33.569Z,26.55
2022-08-20T18:09:44.636Z,26.71
2022-08-20T18:11:57.253Z,27.32
2022-08-20T18:14:18.583Z,26.81
2022-08-20T18:16:27.520Z,27.51
2022-08-20T18:18:35.847Z,27.81
2022-08-20T18:21:17.101Z,27.46
2022-08-20T18:23:26.313Z,27.15
2022-08-20T18:25:38.039Z,26.91
2022-08-20T18:27:47.460Z,27.49
2022-08-20T18:29:56.404Z,27.97
2022-08-20T18:32:02.112Z,28.89
2022-08-20T18:34:11.431Z,29.06
2022-08-20T18:36:26.582Z,29.54
2022-08-20T18:38:31.547Z,30.44
2022-08-20T18:40:34.556Z,31.01
2022-08-20T18:42:38.733Z,31.33
2022-08-20T18:44:44.174Z,31.62
2022-08-20T18:46:56.976Z,31.80
2022-08-20T18:49:01.834Z,32.51
2022-08-20T18:51:11.396Z,32.36
2022-08-20T18:53:18.343Z,32.24
2022-08-20T18:55:34.052Z,33.07
2022-08-20T18:57:41.650Z,33.29
2022-08-20T18:59:55.414Z,33.44
2022-08-20T19:02:00.781Z,33.73
2022-08-20T19:04:19.086Z,33.48
2022-08-20T19:06:32.480Z,33.63
2022-08-20T19:08:43.817Z,34.18
2022-08-20T19:10:50.849Z,34.24
2022-08-20T19:13:27.598Z,34.26
2022-08-20T19:15:33.007Z,34.52
2022-08-20T19:17:49.925Z,34.73
2022-08-20T19:20:00.262Z,35.07
2022-08-20T19:22:04.377Z,35.08
2022-08-20T19:24:09.103Z,35.30
2022-08-20T19:26:25.837Z,35.10
2022-08-20T19:28:31.590Z,35.37
2022-08-20T19:30:37.804Z,35.38
2022-08-20T19:32:52.297Z,35.60
2022-08-20T19:34:57.675Z,35.88
2022-08-20T19:37:09.075Z,35.82
2022-08-20T19:39:28.141Z,36.09
2022-08-20T19:41:36.334Z,35.89
2022-08-20T19:43:44.255Z,36.15
2022-08-20T19:45:50.073Z,36.17
2022-08-20T19:48:10.397Z,36.26
2022-08-20T19:50:22.656Z,36.40
2022-08-20T19:52:38.386Z,36.62
2022-08-20T19:54:48.476Z,36.43
2022-08-20T19:56:52.234Z,36.49
2022-08-20T19:59:03.359Z,36.23
2022-08-20T20:01:16.434Z,36.49
2022-08-20T20:03:23.995Z,36.54
2022-08-20T20:05:26.922Z,36.30
2022-08-20T20:07:36.572Z,36.23
2022-08-20T20:09:43.013Z,36.47
2022-08-20T20:11:50.817Z,36.78
2022-08-20T20:13:53.897Z,36.87
2022-08-20T20:16:00.554Z,36.89
2022-08-20T20:18:03.525Z,36.81
2022-08-20T20:20:22.895Z,37.11
2022-08-20T20:22:29.399Z,37.00
2022-08-20T20:24:43.201Z,37.22
2022-08-20T20:26:49.529Z,37.15
2022-08-20T20:28:55.743Z,37.11
2022-08-20T20:31:07.250Z,37.24
2022-08-20T20:33:16.303Z,37.39
2022-08-20T20:35:28.130Z,37.70
2022-08-20T20:37:49.400Z,37.61
2022-08-20T20:40:01.730Z,37.57
2022-08-20T20:42:09.172Z,37.64
2022-08-20T20:44:20.873Z,37.50
2022-08-20T20:46:27.528Z,37.72
2022-08-20T20:48:45.933Z,37.59
2022-08-20T20:50:52.906Z,37.76
2022-08-20T20:52:59.903Z,37.85
2022-08-20T20:55:13.130Z,38.02
2022-08-20T20:57:36.486Z,38.04
2022-08-20T20:59:41.732Z,38.38
2022-08-20T21:01:48.340Z,38.25
2022-08-20T21:03:52.732Z,38.36
2022-08-20T21:05:57.758Z,38.50
2022-08-20T21:08:04.231Z,38.62
2022-08-20T21:10:07.839Z,38.65
2022-08-20T21:12:12.186Z,38.74
2022-08-20T21:14:15.212Z,38.99
2022-08-20T21:16:18.463Z,39.21
2022-08-20T21:18:25.440Z,39.18
2022-08-20T21:20:29.677Z,39.08
2022-08-20T21:22:34.732Z,38.98
2022-08-20T21:24:37.584Z,38.97
2022-08-20T21:26:40.663Z,38.90
2022-08-20T21:28:43.608Z,39.11
2022-08-20T21:30:46.544Z,38.85
2022-08-20T21:32:49.488Z,38.91
2022-08-20T21:34:52.835Z,39.07
2022-08-20T21:36:55.787Z,39.42
2022-08-20T21:39:02.176Z,39.15
2022-08-20T21:41:05.207Z,39.17
2022-08-20T21:43:08.195Z,39.31
2022-08-20T21:45:15.382Z,39.20
2022-08-20T21:47:21.613Z,39.20
2022-08-20T21:49:25.577Z,39.29
2022-08-20T21:51:28.440Z,39.30
2022-08-20T21:53:31.867Z,39.44
2022-08-20T21:55:39.514Z,39.60
2022-08-20T21:57:48.161Z,39.95
2022-08-20T21:59:56.989Z,39.74
2022-08-20T22:02:00.583Z,39.80
2022-08-20T22:04:04.255Z,39.86
2022-08-20T22:06:10.624Z,40.04
2022-08-20T22:08:13.567Z,40.16
2022-08-20T22:10:16.410Z,40.24
2022-08-20T22:12:23.573Z,40.10
2022-08-20T22:14:26.407Z,40.26
2022-08-20T22:16:29.684Z,40.50
2022-08-20T22:18:34.247Z,40.53
2022-08-20T22:20:37.295Z,40.68
2022-08-20T22:22:41.623Z,40.54
2022-08-20T22:24:48.852Z,40.74
2022-08-20T22:26:51.949Z,40.88
2022-08-20T22:28:56.743Z,41.26
2022-08-20T22:30:59.971Z,41.20
2022-08-20T22:33:04.734Z,41.24
2022-08-20T22:35:08.714Z,41.37
2022-08-20T22:37:12.274Z,41.12
2022-08-20T22:39:15.743Z,41.05
2022-08-20T22:41:19.074Z,41.25
2022-08-20T22:43:23.113Z,41.28
2022-08-20T22:45:27.450Z,41.22
2022-08-20T22:47:30.314Z,41.82
2022-08-20T22:49:36.410Z,41.49
2022-08-20T22:51:42.852Z,41.62
2022-08-20T22:53:46.331Z,41.53
2022-08-20T22:55:50.274Z,41.67
2022-08-20T22:57:53.152Z,41.93
2022-08-20T22:59:56.006Z,41.83
2022-08-20T23:02:07.978Z,43.16
2022-08-20T23:04:15.317Z,44.61
2022-08-20T23:06:18.781Z,44.60
2022-08-20T23:08:21.733Z,44.22
2022-08-20T23:10:31.223Z,43.97
2022-08-20T23:12:34.147Z,43.76
2022-08-20T23:14:37.591Z,43.99
2022-08-20T23:16:43.863Z,43.96
2022-08-20T23:18:48.154Z,44.01
2022-08-20T23:20:52.405Z,44.21
2022-08-20T23:22:55.309Z,44.81
2022-08-20T23:25:00.515Z,45.11
2022-08-20T23:27:04.467Z,45.33
2022-08-20T23:29:07.375Z,45.27
2022-08-20T23:31:10.283Z,44.48
2022-08-20T23:33:13.255Z,44.72
2022-08-20T23:35:18.317Z,44.74
2022-08-20T23:37:21.231Z,44.43
2022-08-20T23:39:24.883Z,44.29
2022-08-20T23:41:27.769Z,44.37
2022-08-20T23:43:30.671Z,44.33
2022-08-20T23:45:34.332Z,44.07
2022-08-20T23:47:38.676Z,44.42
2022-08-20T23:49:41.614Z,44.46
2022-08-20T23:51:45.857Z,44.75
2022-08-20T23:53:49.091Z,44.70
2022-08-20T23:55:52.151Z,44.61
2022-08-20T23:57:54.982Z,44.46
2022-08-20T23:59:58.147Z,44.81
